Time;durP1;ratioP1;P1;durP2;ratioP2;P2;SDS_P1;SDS_P2;PMS_P1;PMS_P2;Temp;Humidity;BMP_temperature;BMP_pressure;BME280_temperature;BME280_humidity;BME280_pressure;Samples;Min_cycle;Max_cycle;Signal;HPM_P1;HPM_P2
2022/05/10 05:18:12;;;;;;;;;;;17.20;99.90;;;;;;5433991;23;19925;-91
2022/05/10 05:20:39;;;;;;;;;;;17.20;99.90;;;;;;4978474;28;20008;-88
2022/05/10 05:23:08;;;;;;;;;;;17.20;99.90;;;;;;4992054;28;20005;-88
2022/05/10 05:25:35;;;;;;;;;;;17.30;99.90;;;;;;4975507;28;20157;-90
2022/05/10 05:28:01;;;;;;;;;;;17.30;99.90;;;;;;4996430;28;19917;-89
2022/05/10 05:30:26;;;;;;;;;;;17.30;99.90;;;;;;4973602;28;19910;-88
2022/05/10 05:32:52;;;;;;;;;;;17.30;99.90;;;;;;4990655;28;19910;-89
2022/05/10 05:35:17;;;;;;;;;;;17.30;99.90;;;;;;4991308;28;20016;-89
2022/05/10 05:37:43;;;;;;;;;;;17.30;99.90;;;;;;4977779;28;20502;-89
2022/05/10 05:40:13;;;;;;;;;;;17.40;99.90;;;;;;4985745;28;20366;-89
2022/05/10 05:42:39;;;;;;;;;;;17.40;99.90;;;;;;4973612;28;19917;-89
2022/05/10 05:45:05;;;;;;;;;;;17.40;99.90;;;;;;4991442;28;19910;-88
2022/05/10 05:47:31;;;;;;;;;;;17.50;99.90;;;;;;4973935;28;19910;-88
2022/05/10 05:49:56;;;;;;;;;;;17.50;99.90;;;;;;4993384;28;19956;-88
2022/05/10 05:52:22;;;;;;;;;;;17.50;99.90;;;;;;4974004;28;19910;-88
2022/05/10 05:54:49;;;;;;;;;;;17.60;99.90;;;;;;4991590;28;19910;-88
2022/05/10 05:57:14;;;;;;;;;;;17.60;99.90;;;;;;4991577;28;19910;-89
2022/05/10 05:59:42;;;;;;;;;;;17.70;99.90;;;;;;4993417;28;20444;-88
2022/05/10 06:02:12;;;;;;;;;;;17.80;99.90;;;;;;4991510;28;19910;-89
2022/05/10 06:04:37;;;;;;;;;;;17.90;99.90;;;;;;4991349;28;19913;-88
2022/05/10 06:07:03;;;;;;;;;;;17.90;99.90;;;;;;4991237;28;19916;-88
2022/05/10 06:09:28;;;;;;;;;;;18.00;99.90;;;;;;4973700;28;19910;-88
2022/05/10 06:11:54;;;;;;;;;;;18.00;99.90;;;;;;4991127;28;19910;-89
2022/05/10 06:14:19;;;;;;;;;;;18.10;99.90;;;;;;4973736;28;19914;-88
2022/05/10 06:16:45;;;;;;;;;;;18.00;99.90;;;;;;4991819;28;19909;-89
2022/05/10 06:19:11;;;;;;;;;;;18.10;99.90;;;;;;4991410;28;19917;-88
2022/05/10 06:21:36;;;;;;;;;;;18.10;99.90;;;;;;4991255;28;19920;-89
2022/05/10 06:24:02;;;;;;;;;;;18.20;99.90;;;;;;4991483;28;19910;-87
2022/05/10 06:26:28;;;;;;;;;;;18.30;99.90;;;;;;4973628;28;20386;-88
2022/05/10 06:28:53;;;;;;;;;;;18.30;99.90;;;;;;4973558;28;19957;-88
2022/05/10 06:31:19;;;;;;;;;;;18.40;99.90;;;;;;4973382;28;19913;-88
2022/05/10 06:33:44;;;;;;;;;;;18.50;99.90;;;;;;4973599;28;20000;-89
2022/05/10 06:36:10;;;;;;;;;;;18.50;99.90;;;;;;4974230;28;19910;-88
2022/05/10 06:38:36;;;;;;;;;;;18.60;99.90;;;;;;4973353;28;20301;-88
2022/05/10 06:41:04;;;;;;;;;;;18.70;99.90;;;;;;4973559;28;20005;-88
2022/05/10 06:43:38;;;;;;;;;;;18.80;99.90;;;;;;4973458;28;20386;-87
2022/05/10 06:46:10;;;;;;;;;;;18.90;99.90;;;;;;4973455;28;20378;-88
2022/05/10 06:48:35;;;;;;;;;;;19.00;99.90;;;;;;4991678;28;19917;-88
2022/05/10 06:51:05;;;;;;;;;;;19.00;99.90;;;;;;4973316;28;19910;-88
2022/05/10 06:53:30;;;;;;;;;;;19.10;99.90;;;;;;4990960;28;20212;-88
2022/05/10 06:55:56;;;;;;;;;;;19.30;99.90;;;;;;4990924;28;20235;-88
2022/05/10 06:58:22;;;;;;;;;;;19.30;99.90;;;;;;4990783;28;19988;-88
2022/05/10 07:00:47;;;;;;;;;;;19.30;99.90;;;;;;4990884;28;19910;-88
2022/05/10 07:03:14;;;;;;;;;;;19.40;99.90;;;;;;4973346;28;19909;-88
2022/05/10 07:05:41;;;;;;;;;;;19.50;99.90;;;;;;4973242;28;19969;-88
2022/05/10 07:08:07;;;;;;;;;;;19.60;99.90;;;;;;4990717;28;19910;-88
2022/05/10 07:10:32;;;;;;;;;;;19.60;99.90;;;;;;4990574;28;19917;-88
2022/05/10 07:12:58;;;;;;;;;;;19.60;99.90;;;;;;4991147;28;20381;-88
2022/05/10 07:15:24;;;;;;;;;;;19.60;99.90;;;;;;4990801;28;20386;-88
2022/05/10 07:17:50;;;;;;;;;;;19.60;99.90;;;;;;4974161;28;20279;-88
2022/05/10 07:20:17;;;;;;;;;;;19.70;99.90;;;;;;4994649;28;20074;-88
2022/05/10 07:22:43;;;;;;;;;;;19.80;99.90;;;;;;4994527;28;19929;-88
2022/05/10 07:25:11;;;;;;;;;;;19.90;99.90;;;;;;4976495;28;20324;-90
2022/05/10 07:27:36;;;;;;;;;;;19.80;99.90;;;;;;4976840;28;19981;-92
2022/05/10 07:30:02;;;;;;;;;;;19.80;99.90;;;;;;4993982;28;19952;-88
2022/05/10 07:32:29;;;;;;;;;;;19.80;99.90;;;;;;4994111;28;19998;-88
2022/05/10 07:34:54;;;;;;;;;;;19.80;99.90;;;;;;4976608;28;19910;-88
2022/05/10 07:37:20;;;;;;;;;;;19.90;99.90;;;;;;4993929;28;19913;-88
2022/05/10 07:39:45;;;;;;;;;;;19.80;99.90;;;;;;4993614;28;19937;-88
2022/05/10 07:42:11;;;;;;;;;;;19.80;99.90;;;;;;4993964;28;20307;-89
2022/05/10 07:44:36;;;;;;;;;;;19.90;99.90;;;;;;4993763;28;20389;-88
2022/05/10 07:47:03;;;;;;;;;;;19.90;99.90;;;;;;4994530;28;19916;-88
2022/05/10 07:49:28;;;;;;;;;;;19.90;99.90;;;;;;4976780;28;19909;-87
2022/05/10 07:51:54;;;;;;;;;;;20.00;99.90;;;;;;4976125;28;19985;-88
2022/05/10 07:54:19;;;;;;;;;;;20.10;99.90;;;;;;4976179;28;20432;-89
2022/05/10 07:56:45;;;;;;;;;;;20.30;99.90;;;;;;4993372;28;20281;-89
2022/05/10 07:59:11;;;;;;;;;;;20.40;99.90;;;;;;4993713;28;19918;-89
2022/05/10 08:01:36;;;;;;;;;;;20.60;99.90;;;;;;4993669;28;19910;-89
2022/05/10 08:04:02;;;;;;;;;;;20.50;99.90;;;;;;4993660;28;19910;-88
2022/05/10 08:06:28;;;;;;;;;;;20.60;99.90;;;;;;4993450;28;20004;-88
2022/05/10 08:08:54;;;;;;;;;;;20.60;99.90;;;;;;4993398;28;20013;-89
2022/05/10 08:11:20;;;;;;;;;;;20.60;99.90;;;;;;4993059;28;19945;-88
2022/05/10 08:13:46;;;;;;;;;;;20.50;99.90;;;;;;4975658;28;19910;-89
2022/05/10 08:16:11;;;;;;;;;;;20.50;99.90;;;;;;4975646;28;19909;-88
2022/05/10 08:18:40;;;;;;;;;;;20.50;99.90;;;;;;4992900;28;19921;-89
2022/05/10 08:21:06;;;;;;;;;;;20.50;99.90;;;;;;4995544;28;19917;-89
2022/05/10 08:23:33;;;;;;;;;;;20.60;99.90;;;;;;4994627;28;19910;-89
2022/05/10 08:25:59;;;;;;;;;;;20.50;99.90;;;;;;4992936;28;19953;-89
2022/05/10 08:28:26;;;;;;;;;;;20.50;99.90;;;;;;4992660;28;20400;-88
2022/05/10 08:30:52;;;;;;;;;;;20.60;99.90;;;;;;4992866;28;19945;-89
2022/05/10 08:33:23;;;;;;;;;;;20.60;99.90;;;;;;4975268;28;19953;-89
2022/05/10 08:35:49;;;;;;;;;;;20.70;99.90;;;;;;4992927;28;19917;-88
2022/05/10 08:38:15;;;;;;;;;;;20.70;99.90;;;;;;4992721;28;20325;-88
2022/05/10 08:40:59;;;;;;;;;;;20.70;99.90;;;;;;4992631;28;19917;-89
2022/05/10 08:43:37;;;;;;;;;;;20.80;99.90;;;;;;4975631;28;20414;-89
2022/05/10 08:46:03;;;;;;;;;;;20.90;99.90;;;;;;4992718;28;19952;-88
2022/05/10 08:48:31;;;;;;;;;;;20.90;99.90;;;;;;4992710;28;19945;-89
2022/05/10 08:50:57;;;;;;;;;;;20.90;99.90;;;;;;4992459;28;19910;-88
2022/05/10 08:53:23;;;;;;;;;;;21.00;99.90;;;;;;4992324;28;19918;-89
2022/05/10 08:55:55;;;;;;;;;;;21.10;99.90;;;;;;4992185;28;19910;-89
2022/05/10 08:58:30;;;;;;;;;;;21.10;99.90;;;;;;4974892;28;19980;-88
2022/05/10 09:00:57;;;;;;;;;;;21.20;99.90;;;;;;4992429;28;19936;-88
2022/05/10 09:03:38;;;;;;;;;;;21.20;99.90;;;;;;4974755;28;19917;-89
2022/05/10 09:06:11;;;;;;;;;;;21.20;99.90;;;;;;4975229;28;19929;-89
2022/05/10 09:08:55;;;;;;;;;;;21.20;99.90;;;;;;4992488;28;19930;-89
2022/05/10 09:11:21;;;;;;;;;;;21.30;99.90;;;;;;4992090;28;20042;-89
2022/05/10 09:13:47;;;;;;;;;;;21.40;99.90;;;;;;4974650;28;20452;-89
2022/05/10 09:16:13;;;;;;;;;;;21.40;99.90;;;;;;4992031;28;19910;-88
2022/05/10 09:18:40;;;;;;;;;;;21.50;99.90;;;;;;4991608;28;19965;-88
2022/05/10 09:21:23;;;;;;;;;;;21.60;99.90;;;;;;4974558;28;19910;-89
2022/05/10 09:23:55;;;;;;;;;;;21.70;99.90;;;;;;4974602;28;19917;-89
2022/05/10 09:26:23;;;;;;;;;;;21.70;99.90;;;;;;4991909;28;19961;-88
2022/05/10 09:28:49;;;;;;;;;;;21.80;99.90;;;;;;4974685;28;20054;-91
2022/05/10 09:36:53;;;;;;;;;;;22.00;99.90;;;;;;4995620;28;20273;-90
2022/05/10 09:39:36;;;;;;;;;;;22.00;99.90;;;;;;4991931;28;19917;-89
2022/05/10 09:42:02;;;;;;;;;;;22.00;99.90;;;;;;4991510;28;20301;-89
2022/05/10 09:44:29;;;;;;;;;;;22.10;99.90;;;;;;4991814;28;20020;-90
2022/05/10 09:47:10;;;;;;;;;;;22.10;99.90;;;;;;4974218;28;20385;-90
2022/05/10 09:49:37;;;;;;;;;;;22.10;99.90;;;;;;4991668;28;19910;-89
2022/05/10 09:52:03;;;;;;;;;;;22.20;99.90;;;;;;4974135;28;19953;-89
2022/05/10 09:54:40;;;;;;;;;;;22.20;99.90;;;;;;4973884;28;19916;-90
2022/05/10 09:57:10;;;;;;;;;;;22.20;99.90;;;;;;4991583;28;19945;-89
2022/05/10 09:59:45;;;;;;;;;;;22.20;99.90;;;;;;4993727;28;19948;-90
2022/05/10 10:02:24;;;;;;;;;;;22.20;99.90;;;;;;4978041;28;20374;-89
2022/05/10 10:04:49;;;;;;;;;;;22.20;99.90;;;;;;4974006;28;19956;-90
2022/05/10 10:07:20;;;;;;;;;;;22.20;99.90;;;;;;4973988;28;19914;-89
2022/05/10 10:09:47;;;;;;;;;;;22.40;99.70;;;;;;4991189;28;19909;-89
2022/05/10 10:12:26;;;;;;;;;;;22.50;99.90;;;;;;4973888;28;19933;-89
2022/05/10 10:14:52;;;;;;;;;;;22.60;99.70;;;;;;4991328;28;19917;-89
2022/05/10 10:17:27;;;;;;;;;;;22.60;99.90;;;;;;4973486;28;19913;-89
2022/05/10 10:19:59;;;;;;;;;;;22.70;98.90;;;;;;4991643;28;19936;-88
2022/05/10 10:22:33;;;;;;;;;;;22.70;99.40;;;;;;4974059;28;19920;-89
2022/05/10 10:25:07;;;;;;;;;;;22.80;98.20;;;;;;4974173;28;19917;-88
2022/05/10 10:27:54;;;;;;;;;;;22.80;98.20;;;;;;4991778;28;19940;-90
2022/05/10 10:30:34;;;;;;;;;;;22.80;97.90;;;;;;4992160;28;19975;-89
2022/05/10 10:32:59;;;;;;;;;;;23.00;98.00;;;;;;4991722;28;19910;-89
2022/05/10 10:35:28;;;;;;;;;;;23.10;97.30;;;;;;4974318;28;20368;-89
2022/05/10 10:37:54;;;;;;;;;;;23.20;98.20;;;;;;4991641;28;19918;-89
2022/05/10 10:40:37;;;;;;;;;;;23.20;95.90;;;;;;4991210;28;19914;-89
2022/05/10 10:43:08;;;;;;;;;;;23.30;96.80;;;;;;4991661;28;19910;-89
2022/05/10 10:45:38;;;;;;;;;;;23.50;97.10;;;;;;4991964;28;19910;-89
2022/05/10 10:48:15;;;;;;;;;;;23.70;96.80;;;;;;4991390;28;19910;-88
2022/05/10 10:50:40;;;;;;;;;;;23.80;95.90;;;;;;4974097;28;20302;-88
2022/05/10 10:53:08;;;;;;;;;;;23.80;95.10;;;;;;4993111;28;19910;-89
2022/05/10 10:55:43;;;;;;;;;;;23.80;94.40;;;;;;4994845;28;20443;-88
2022/05/10 10:58:28;;;;;;;;;;;24.00;94.30;;;;;;4977589;28;20405;-90
2022/05/10 11:01:12;;;;;;;;;;;24.10;93.90;;;;;;4995588;28;19957;-89
2022/05/10 11:03:43;;;;;;;;;;;24.20;93.40;;;;;;4977637;28;19919;-87
2022/05/10 11:06:24;;;;;;;;;;;24.60;93.70;;;;;;4994698;28;19913;-88
2022/05/10 11:09:01;;;;;;;;;;;24.60;92.90;;;;;;4994488;28;19936;-88
2022/05/10 11:11:42;;;;;;;;;;;24.40;92.80;;;;;;4976891;28;19909;-88
2022/05/10 11:14:26;;;;;;;;;;;24.40;92.90;;;;;;4976766;28;19993;-88
2022/05/10 11:17:11;;;;;;;;;;;24.50;92.00;;;;;;4976485;28;19914;-88
2022/05/10 11:19:36;;;;;;;;;;;24.40;92.00;;;;;;4976192;28;19924;-88
2022/05/10 11:22:21;;;;;;;;;;;24.40;91.40;;;;;;4994289;28;19914;-88
2022/05/10 11:24:58;;;;;;;;;;;24.40;91.50;;;;;;4978082;28;19910;-88
2022/05/10 11:27:38;;;;;;;;;;;24.50;91.40;;;;;;4994637;28;19910;-88
2022/05/10 11:30:10;;;;;;;;;;;24.60;90.40;;;;;;4976635;28;20373;-88
2022/05/10 11:32:45;;;;;;;;;;;24.60;91.60;;;;;;4994105;28;19917;-88
2022/05/10 11:35:13;;;;;;;;;;;24.90;90.90;;;;;;4993735;28;19910;-88
2022/05/10 11:37:49;;;;;;;;;;;25.10;90.70;;;;;;4993802;28;19914;-88
2022/05/10 11:40:28;;;;;;;;;;;25.10;90.30;;;;;;4993476;28;19940;-88
2022/05/10 11:43:02;;;;;;;;;;;25.20;90.40;;;;;;4995233;28;19914;-88
2022/05/10 11:45:46;;;;;;;;;;;25.30;90.50;;;;;;4993794;28;20314;-88
2022/05/10 11:48:31;;;;;;;;;;;25.40;90.50;;;;;;4976333;28;19909;-88
2022/05/10 11:54:07;;;;;;;;;;;25.40;90.10;;;;;;4994402;28;20402;-88
2022/05/10 11:56:34;;;;;;;;;;;25.70;89.80;;;;;;4993342;28;19920;-88
2022/05/10 11:59:12;;;;;;;;;;;25.50;89.40;;;;;;4993407;28;19917;-88
2022/05/10 12:01:48;;;;;;;;;;;25.30;88.50;;;;;;4993392;28;19917;-89
2022/05/10 12:04:32;;;;;;;;;;;25.30;89.20;;;;;;4993298;28;20358;-88
2022/05/10 12:07:16;;;;;;;;;;;25.40;88.50;;;;;;4993444;28;20256;-88
2022/05/10 12:09:56;;;;;;;;;;;25.50;89.00;;;;;;4993341;28;20001;-88
2022/05/10 12:12:41;;;;;;;;;;;25.40;88.70;;;;;;4993374;28;19910;-88
2022/05/10 12:21:19;;;;;;;;;;;26.10;86.20;;;;;;4993272;28;20283;-89
2022/05/10 12:24:03;;;;;;;;;;;26.10;88.10;;;;;;4992979;28;19961;-88
2022/05/10 12:26:31;;;;;;;;;;;26.50;86.70;;;;;;4992900;28;20047;-87
2022/05/10 12:28:57;;;;;;;;;;;26.10;87.20;;;;;;4993235;28;19996;-89
2022/05/10 12:31:34;;;;;;;;;;;25.80;86.00;;;;;;4992981;28;19910;-88
2022/05/10 12:34:07;;;;;;;;;;;25.90;86.70;;;;;;4993073;28;19916;-88
2022/05/10 12:36:35;;;;;;;;;;;26.20;86.70;;;;;;4975277;28;19919;-88
2022/05/10 12:39:16;;;;;;;;;;;26.40;86.30;;;;;;4975124;28;19918;-87
2022/05/10 12:41:49;;;;;;;;;;;26.70;85.60;;;;;;4992577;28;19952;-88
2022/05/10 12:44:30;;;;;;;;;;;26.90;84.50;;;;;;4975043;28;19914;-89
2022/05/10 12:47:11;;;;;;;;;;;27.00;85.20;;;;;;4992689;28;19909;-88
2022/05/10 12:49:43;;;;;;;;;;;26.90;84.60;;;;;;4992638;28;19909;-88
2022/05/10 12:52:20;;;;;;;;;;;27.00;83.80;;;;;;4992662;28;19910;-88
2022/05/10 12:54:48;;;;;;;;;;;27.00;83.70;;;;;;4992432;28;19912;-88
2022/05/10 12:57:20;;;;;;;;;;;26.90;84.00;;;;;;4974835;28;19909;-88
2022/05/10 13:00:11;;;;;;;;;;;27.30;82.00;;;;;;4974786;28;19918;-88
2022/05/10 13:02:42;;;;;;;;;;;27.40;83.70;;;;;;4974672;28;19914;-91
2022/05/10 13:05:13;;;;;;;;;;;27.90;82.50;;;;;;4992612;28;19993;-90
2022/05/10 13:08:00;;;;;;;;;;;27.60;82.00;;;;;;4974844;28;19910;-90
2022/05/10 13:10:28;;;;;;;;;;;27.70;81.60;;;;;;4974657;28;20332;-90
2022/05/10 13:13:15;;;;;;;;;;;27.60;79.10;;;;;;4977358;28;19910;-90
2022/05/10 13:15:44;;;;;;;;;;;27.30;78.70;;;;;;4973443;28;21609;-90
2022/05/10 13:18:15;;;;;;;;;;;27.40;78.90;;;;;;4991763;28;19930;-90
2022/05/10 13:20:45;;;;;;;;;;;27.40;78.90;;;;;;4991982;28;19920;-90
2022/05/10 13:23:10;;;;;;;;;;;27.50;78.10;;;;;;4974341;28;20282;-90
2022/05/10 13:25:40;;;;;;;;;;;27.60;79.40;;;;;;4992305;28;19910;-90
2022/05/10 13:28:06;;;;;;;;;;;28.30;77.40;;;;;;4992046;28;19910;-90
2022/05/10 13:30:31;;;;;;;;;;;28.70;75.60;;;;;;4991850;28;19920;-91
2022/05/10 13:32:58;;;;;;;;;;;28.80;76.80;;;;;;4974478;28;19910;-90
2022/05/10 13:35:27;;;;;;;;;;;28.80;76.20;;;;;;4974369;28;19910;-90
2022/05/10 13:37:57;;;;;;;;;;;29.60;76.20;;;;;;4992275;28;20440;-90
2022/05/10 13:40:28;;;;;;;;;;;29.80;74.40;;;;;;4973828;28;20032;-90
2022/05/10 13:42:56;;;;;;;;;;;29.80;75.00;;;;;;4974185;28;19952;-90
2022/05/10 13:45:23;;;;;;;;;;;29.90;74.20;;;;;;4991847;28;19965;-90
2022/05/10 13:47:52;;;;;;;;;;;30.10;74.50;;;;;;4992467;28;20004;-90
2022/05/10 13:50:23;;;;;;;;;;;31.10;72.70;;;;;;4991977;28;19910;-90
2022/05/10 13:52:51;;;;;;;;;;;31.80;71.50;;;;;;4991630;28;19910;-90
2022/05/10 13:55:19;;;;;;;;;;;33.70;70.20;;;;;;4991916;28;19910;-90
2022/05/10 13:57:51;;;;;;;;;;;34.30;67.30;;;;;;4974084;28;19918;-90
2022/05/10 14:00:18;;;;;;;;;;;35.10;66.20;;;;;;4973907;28;20263;-90
2022/05/10 14:02:44;;;;;;;;;;;35.20;64.90;;;;;;4991218;28;20042;-90
2022/05/10 14:05:16;;;;;;;;;;;35.50;63.40;;;;;;4974229;28;20070;-90
2022/05/10 14:07:44;;;;;;;;;;;36.70;62.00;;;;;;4991390;28;19910;-89
2022/05/10 14:10:11;;;;;;;;;;;37.00;61.50;;;;;;4991282;28;19945;-90
2022/05/10 14:12:42;;;;;;;;;;;37.50;60.50;;;;;;4991282;28;19910;-90
2022/05/10 14:15:10;;;;;;;;;;;38.40;58.30;;;;;;4991302;28;20294;-90
2022/05/10 14:17:37;;;;;;;;;;;38.30;58.00;;;;;;4991513;28;20074;-90
2022/05/10 14:20:13;;;;;;;;;;;38.20;57.10;;;;;;4991152;28;19918;-90
2022/05/10 14:22:40;;;;;;;;;;;39.60;56.20;;;;;;4991069;28;19910;-90
2022/05/10 14:25:06;;;;;;;;;;;39.50;54.50;;;;;;4991004;28;19916;-91
2022/05/10 14:27:35;;;;;;;;;;;39.20;54.90;;;;;;4993704;28;20386;-91
2022/05/10 14:30:01;;;;;;;;;;;39.20;54.30;;;;;;4977791;28;19913;-90
2022/05/10 14:32:26;;;;;;;;;;;39.20;54.60;;;;;;4995286;28;19964;-88
2022/05/10 14:34:52;;;;;;;;;;;41.00;53.70;;;;;;4995154;28;19910;-88
2022/05/10 14:37:18;;;;;;;;;;;40.90;52.50;;;;;;4977594;28;19918;-88
2022/05/10 14:39:43;;;;;;;;;;;40.40;52.10;;;;;;4995016;28;19922;-88
2022/05/10 14:42:26;;;;;;;;;;;40.00;52.00;;;;;;4977424;28;19972;-88
2022/05/10 14:44:52;;;;;;;;;;;40.70;52.10;;;;;;4994774;28;19916;-88
2022/05/10 14:47:19;;;;;;;;;;;41.20;51.30;;;;;;4994960;28;19916;-88
2022/05/10 14:49:46;;;;;;;;;;;40.80;51.70;;;;;;4994819;28;19940;-88
2022/05/10 14:52:21;;;;;;;;;;;41.10;50.70;;;;;;4994932;28;19910;-88
2022/05/10 14:54:47;;;;;;;;;;;40.10;50.70;;;;;;4977033;28;19979;-88
2022/05/10 14:57:34;;;;;;;;;;;39.20;51.00;;;;;;4995288;28;20378;-88
2022/05/10 15:00:18;;;;;;;;;;;38.20;51.20;;;;;;4995153;28;19918;-89
2022/05/10 15:02:43;;;;;;;;;;;38.80;51.30;;;;;;4994721;28;19986;-88
2022/05/10 15:05:14;;;;;;;;;;;40.70;50.30;;;;;;4994414;28;19909;-88
2022/05/10 15:07:39;;;;;;;;;;;41.10;49.20;;;;;;4977117;28;19910;-88
2022/05/10 15:10:05;;;;;;;;;;;39.90;49.70;;;;;;4994657;28;19914;-89
2022/05/10 15:15:15;;;;;;;;;;;38.00;50.30;;;;;;4994478;28;19920;-88
2022/05/10 15:20:25;;;;;;;;;;;37.80;50.50;;;;;;4994237;28;20449;-88
2022/05/10 15:22:50;;;;;;;;;;;37.60;50.70;;;;;;4994140;28;19945;-88
2022/05/10 15:25:16;;;;;;;;;;;38.50;50.30;;;;;;4993866;28;19917;-88
2022/05/10 15:27:42;;;;;;;;;;;39.50;49.90;;;;;;4976540;28;19914;-88
2022/05/10 15:30:09;;;;;;;;;;;39.30;50.30;;;;;;4976587;28;19910;-88
2022/05/10 15:32:34;;;;;;;;;;;39.50;50.20;;;;;;4976595;28;19910;-88
2022/05/10 15:35:02;;;;;;;;;;;39.70;50.00;;;;;;4995194;28;19916;-88
2022/05/10 15:37:30;;;;;;;;;;;40.30;50.40;;;;;;4993811;28;19933;-88
2022/05/10 15:39:56;;;;;;;;;;;41.60;52.80;;;;;;4993002;28;19914;-88
2022/05/10 15:42:23;;;;;;;;;;;43.00;51.90;;;;;;4976372;28;19933;-89
2022/05/10 15:44:49;;;;;;;;;;;44.00;52.70;;;;;;4993592;28;19910;-89
2022/05/10 15:47:16;;;;;;;;;;;43.60;53.00;;;;;;4993891;28;20548;-89
2022/05/10 15:49:42;;;;;;;;;;;43.60;52.60;;;;;;4993838;28;19909;-89
2022/05/10 15:52:07;;;;;;;;;;;44.50;51.30;;;;;;4976122;28;19910;-89
2022/05/10 15:54:33;;;;;;;;;;;43.20;52.20;;;;;;4993612;28;20275;-88
2022/05/10 15:57:00;;;;;;;;;;;44.30;51.30;;;;;;4993682;28;19910;-88
2022/05/10 15:59:25;;;;;;;;;;;45.30;50.10;;;;;;4993571;28;20378;-89
2022/05/10 16:01:51;;;;;;;;;;;44.80;50.10;;;;;;4975991;28;19964;-89
2022/05/10 16:04:17;;;;;;;;;;;45.20;50.10;;;;;;4975878;28;19955;-88
2022/05/10 16:06:43;;;;;;;;;;;45.80;49.90;;;;;;4993653;28;19916;-88
2022/05/10 16:09:08;;;;;;;;;;;45.20;49.90;;;;;;4993140;28;20293;-89
2022/05/10 16:11:34;;;;;;;;;;;43.90;50.20;;;;;;4993365;28;19917;-89
2022/05/10 16:14:00;;;;;;;;;;;44.50;50.30;;;;;;4993666;28;19910;-88
2022/05/10 16:16:27;;;;;;;;;;;45.70;49.80;;;;;;4993168;28;19917;-88
2022/05/10 16:18:53;;;;;;;;;;;46.20;47.20;;;;;;4992958;28;19976;-88
2022/05/10 16:21:18;;;;;;;;;;;46.10;46.70;;;;;;4993364;28;19969;-89
2022/05/10 16:23:44;;;;;;;;;;;45.40;46.20;;;;;;4993067;28;19917;-89
2022/05/10 16:29:44;;;;;;;;;;;43.60;46.80;;;;;;4992816;28;19972;-88
2022/05/10 16:31:39;;;;;;;;;;;41.70;47.50;;;;;;4993078;28;20333;-88
2022/05/10 16:34:05;;;;;;;;;;;40.80;47.30;;;;;;4992977;28;19917;-89
2022/05/10 16:36:31;;;;;;;;;;;40.30;47.30;;;;;;4992947;28;20286;-88
2022/05/10 16:38:56;;;;;;;;;;;39.80;48.00;;;;;;4975131;28;19918;-88
2022/05/10 16:41:22;;;;;;;;;;;40.30;47.50;;;;;;4994925;28;20105;-88
2022/05/10 16:43:47;;;;;;;;;;;39.70;48.10;;;;;;4985730;28;19910;-89
2022/05/10 16:46:13;;;;;;;;;;;39.60;48.10;;;;;;5003329;28;20149;-89
2022/05/10 16:48:39;;;;;;;;;;;38.90;48.20;;;;;;4987921;28;20330;-90
2022/05/10 16:51:04;;;;;;;;;;;39.10;48.50;;;;;;4985457;28;19994;-88
2022/05/10 16:53:30;;;;;;;;;;;39.60;48.40;;;;;;5003106;28;20181;-89
2022/05/10 16:55:56;;;;;;;;;;;39.50;47.90;;;;;;4982625;28;20105;-89
2022/05/10 16:58:21;;;;;;;;;;;39.70;48.50;;;;;;5002831;28;19910;-88
2022/05/10 17:00:47;;;;;;;;;;;39.30;48.40;;;;;;4985779;28;19916;-88
2022/05/10 17:03:12;;;;;;;;;;;39.60;49.20;;;;;;5004268;28;19906;-89
2022/05/10 17:05:38;;;;;;;;;;;39.20;49.50;;;;;;5003361;28;20201;-88
2022/05/10 17:08:04;;;;;;;;;;;39.00;49.60;;;;;;4986016;28;19985;-88
2022/05/10 17:10:30;;;;;;;;;;;39.30;48.90;;;;;;5003235;28;19912;-87
2022/05/10 17:12:56;;;;;;;;;;;39.40;51.90;;;;;;5003249;28;19980;-88
2022/05/10 17:15:22;;;;;;;;;;;37.90;53.60;;;;;;5003142;28;20000;-88
2022/05/10 17:17:48;;;;;;;;;;;35.30;57.20;;;;;;5002891;28;19918;-88
2022/05/10 17:20:16;;;;;;;;;;;34.20;59.80;;;;;;4998855;28;19910;-90
2022/05/10 17:22:46;;;;;;;;;;;34.30;60.30;;;;;;4985003;28;19909;-89
2022/05/10 17:25:13;;;;;;;;;;;33.40;62.40;;;;;;5001156;28;19906;-89
2022/05/10 17:27:56;;;;;;;;;;;33.80;62.60;;;;;;4978403;28;19910;-89
2022/05/10 17:30:23;;;;;;;;;;;33.50;64.00;;;;;;4982192;28;19930;-89
2022/05/10 17:32:48;;;;;;;;;;;32.90;65.00;;;;;;4965578;28;19917;-89
2022/05/10 17:35:14;;;;;;;;;;;32.40;66.40;;;;;;4965532;28;19921;-88
2022/05/10 17:37:39;;;;;;;;;;;32.40;66.10;;;;;;4982661;28;20240;-89
2022/05/10 17:40:06;;;;;;;;;;;31.20;68.80;;;;;;4982219;28;20194;-89
2022/05/10 17:42:31;;;;;;;;;;;31.40;69.00;;;;;;4964990;28;20094;-89
2022/05/10 17:44:57;;;;;;;;;;;31.20;69.70;;;;;;4982317;28;19917;-89
2022/05/10 17:47:23;;;;;;;;;;;31.00;70.30;;;;;;4982549;28;19906;-89
2022/05/10 17:49:48;;;;;;;;;;;30.20;72.20;;;;;;4964446;28;19914;-88
2022/05/10 17:52:15;;;;;;;;;;;30.80;71.00;;;;;;4981649;28;20155;-88
2022/05/10 17:54:40;;;;;;;;;;;30.50;71.80;;;;;;4981696;28;19906;-89
2022/05/10 17:57:06;;;;;;;;;;;30.10;73.30;;;;;;4965340;28;19906;-89
2022/05/10 17:59:31;;;;;;;;;;;29.70;73.50;;;;;;4965258;28;19982;-89
2022/05/10 18:01:57;;;;;;;;;;;27.80;78.10;;;;;;4982440;28;19906;-89
2022/05/10 18:04:22;;;;;;;;;;;26.40;82.70;;;;;;4982494;28;20095;-89
2022/05/10 18:06:48;;;;;;;;;;;25.40;85.70;;;;;;4982551;28;19938;-88
2022/05/10 18:09:14;;;;;;;;;;;24.70;88.10;;;;;;4983488;28;19913;-89
2022/05/10 18:11:39;;;;;;;;;;;24.20;88.10;;;;;;4964453;28;19992;-88
2022/05/10 18:14:05;;;;;;;;;;;23.90;90.50;;;;;;4981831;28;19906;-88
2022/05/10 18:16:30;;;;;;;;;;;23.70;91.50;;;;;;4965271;28;19981;-90
2022/05/10 18:18:56;;;;;;;;;;;23.50;93.00;;;;;;4993702;28;19959;-90
2022/05/10 18:21:22;;;;;;;;;;;23.40;96.00;;;;;;5001768;28;19906;-88
2022/05/10 18:23:48;;;;;;;;;;;23.10;99.10;;;;;;4982982;28;19913;-88
2022/05/10 18:26:14;;;;;;;;;;;22.80;99.90;;;;;;4991339;28;19910;-89
2022/05/10 18:28:41;;;;;;;;;;;22.60;99.90;;;;;;4974742;28;19910;-89
2022/05/10 18:31:06;;;;;;;;;;;22.40;99.90;;;;;;4974263;28;20438;-89
2022/05/10 18:33:32;;;;;;;;;;;22.30;99.90;;;;;;4991895;28;19914;-89
2022/05/10 18:35:59;;;;;;;;;;;22.20;99.90;;;;;;4992475;28;19916;-89
2022/05/10 18:38:26;;;;;;;;;;;22.20;99.90;;;;;;4991705;28;19921;-90
2022/05/10 18:40:52;;;;;;;;;;;22.10;99.90;;;;;;4973992;28;19910;-89
2022/05/10 18:43:18;;;;;;;;;;;22.00;99.90;;;;;;4992109;28;19914;-88
2022/05/10 18:45:44;;;;;;;;;;;21.90;99.90;;;;;;4974995;28;19918;-89
2022/05/10 18:48:11;;;;;;;;;;;21.80;99.90;;;;;;4992016;28;19956;-89
2022/05/10 18:50:37;;;;;;;;;;;21.80;99.90;;;;;;4991788;28;20523;-88
2022/05/10 18:53:02;;;;;;;;;;;21.80;99.90;;;;;;4991716;28;19968;-88
2022/05/10 18:55:29;;;;;;;;;;;21.90;99.90;;;;;;4991389;28;19916;-88
2022/05/10 18:57:55;;;;;;;;;;;21.90;99.90;;;;;;4973881;28;19957;-89
2022/05/10 19:00:24;;;;;;;;;;;21.80;99.90;;;;;;4974235;28;19930;-88
2022/05/10 19:02:52;;;;;;;;;;;21.70;99.90;;;;;;4974184;28;19949;-88
2022/05/10 19:05:17;;;;;;;;;;;21.60;99.90;;;;;;4991733;28;19996;-89
2022/05/10 19:07:43;;;;;;;;;;;21.60;99.90;;;;;;4991359;28;19953;-87
2022/05/10 19:10:09;;;;;;;;;;;21.60;99.90;;;;;;4976804;28;20170;-88
2022/05/10 19:12:35;;;;;;;;;;;21.60;99.90;;;;;;4973126;28;19914;-92
2022/05/10 19:15:00;;;;;;;;;;;21.50;99.90;;;;;;4993955;28;20267;-90
2022/05/10 19:17:26;;;;;;;;;;;21.50;99.90;;;;;;4976954;28;19922;-90
2022/05/10 19:19:52;;;;;;;;;;;21.50;99.90;;;;;;4994550;28;20027;-89
2022/05/10 19:22:17;;;;;;;;;;;21.40;99.90;;;;;;4994538;28;19916;-90
2022/05/10 19:24:43;;;;;;;;;;;21.50;99.90;;;;;;4994988;28;20060;-89
2022/05/10 19:27:08;;;;;;;;;;;21.40;99.90;;;;;;4994419;28;19949;-89
2022/05/10 19:29:37;;;;;;;;;;;21.40;99.90;;;;;;4977080;28;20577;-90
2022/05/10 19:32:03;;;;;;;;;;;21.40;99.90;;;;;;4994161;28;19910;-89
2022/05/10 19:34:29;;;;;;;;;;;21.40;99.90;;;;;;4994317;28;19910;-90
2022/05/10 19:36:54;;;;;;;;;;;21.50;99.90;;;;;;4976830;28;20366;-89
2022/05/10 19:39:20;;;;;;;;;;;21.40;99.90;;;;;;4975891;28;19928;-90
2022/05/10 19:41:46;;;;;;;;;;;21.40;99.90;;;;;;4994223;28;19953;-91
2022/05/10 19:44:12;;;;;;;;;;;21.40;99.90;;;;;;4976825;28;20457;-90
2022/05/10 19:46:38;;;;;;;;;;;21.40;99.90;;;;;;4994030;28;20529;-90
2022/05/10 19:49:04;;;;;;;;;;;21.40;99.90;;;;;;4994233;28;19914;-89
2022/05/10 19:51:30;;;;;;;;;;;21.40;99.90;;;;;;4993443;28;19997;-90
2022/05/10 19:53:55;;;;;;;;;;;21.20;99.90;;;;;;4993927;28;20005;-90
2022/05/10 19:56:22;;;;;;;;;;;21.10;99.90;;;;;;4993841;28;19909;-90
2022/05/10 19:58:48;;;;;;;;;;;20.90;99.90;;;;;;4993861;28;20386;-90
2022/05/10 20:05:21;;;;;;;;;;;20.90;99.90;;;;;;4993974;28;19910;-93
2022/05/10 20:06:44;;;;;;;;;;;20.70;99.90;;;;;;4993837;28;19916;-90
2022/05/10 20:09:09;;;;;;;;;;;20.60;99.90;;;;;;4976490;28;19929;-90